sensor_id;sensor_type;location;lat;lon;timestamp;pressure;altitude;pressure_sealevel;temperature;humidity
64453;BME280;50813;52.654;6.766;2023-03-23T00:01:11;100118.0;;;11.29;100.0
64453;BME280;50813;52.654;6.766;2023-03-23T00:02:49;100113.0;;;11.29;100.0
64453;BME280;50813;52.654;6.766;2023-03-23T00:04:25;100114.0;;;11.28;100.0
64453;BME280;50813;52.654;6.766;2023-03-23T00:07:38;100110.0;;;11.31;100.0
64453;BME280;50813;52.654;6.766;2023-03-23T00:09:15;100108.0;;;11.29;100.0
64453;BME280;50813;52.654;6.766;2023-03-23T00:10:51;100112.0;;;11.33;100.0
64453;BME280;50813;52.654;6.766;2023-03-23T00:14:08;100106.0;;;11.35;100.0
64453;BME280;50813;52.654;6.766;2023-03-23T00:15:46;100107.0;;;11.37;100.0
64453;BME280;50813;52.654;6.766;2023-03-23T00:17:22;100093.0;;;11.32;100.0
64453;BME280;50813;52.654;6.766;2023-03-23T00:19:00;100090.0;;;11.35;100.0
64453;BME280;50813;52.654;6.766;2023-03-23T00:22:16;100089.0;;;11.31;100.0
64453;BME280;50813;52.654;6.766;2023-03-23T00:23:53;100101.0;;;11.34;100.0
64453;BME280;50813;52.654;6.766;2023-03-23T00:25:29;100080.0;;;11.33;100.0
64453;BME280;50813;52.654;6.766;2023-03-23T00:28:41;100080.0;;;11.34;100.0
64453;BME280;50813;52.654;6.766;2023-03-23T00:30:18;100085.0;;;11.31;100.0
64453;BME280;50813;52.654;6.766;2023-03-23T00:31:54;100083.0;;;11.29;100.0
64453;BME280;50813;52.654;6.766;2023-03-23T00:33:31;100083.0;;;11.29;100.0
64453;BME280;50813;52.654;6.766;2023-03-23T00:36:45;100084.0;;;11.29;100.0
64453;BME280;50813;52.654;6.766;2023-03-23T00:38:24;100082.0;;;11.29;100.0
64453;BME280;50813;52.654;6.766;2023-03-23T00:40:00;100078.0;;;11.31;100.0
64453;BME280;50813;52.654;6.766;2023-03-23T00:43:13;100090.0;;;11.33;100.0
64453;BME280;50813;52.654;6.766;2023-03-23T00:44:49;100097.0;;;11.33;100.0
64453;BME280;50813;52.654;6.766;2023-03-23T00:46:25;100100.0;;;11.3;100.0
64453;BME280;50813;52.654;6.766;2023-03-23T00:49:38;100094.0;;;11.31;100.0
64453;BME280;50813;52.654;6.766;2023-03-23T00:51:14;100091.0;;;11.3;100.0
64453;BME280;50813;52.654;6.766;2023-03-23T00:52:50;100091.0;;;11.3;100.0
64453;BME280;50813;52.654;6.766;2023-03-23T00:54:27;100083.0;;;11.27;100.0
64453;BME280;50813;52.654;6.766;2023-03-23T00:57:41;100063.0;;;11.29;100.0
64453;BME280;50813;52.654;6.766;2023-03-23T00:59:17;100049.0;;;11.27;100.0
64453;BME280;50813;52.654;6.766;2023-03-23T01:00:54;100042.0;;;11.27;100.0
64453;BME280;50813;52.654;6.766;2023-03-23T01:04:07;100053.0;;;11.26;100.0
64453;BME280;50813;52.654;6.766;2023-03-23T01:05:45;100050.0;;;11.24;100.0
64453;BME280;50813;52.654;6.766;2023-03-23T01:07:22;100045.0;;;11.29;100.0
64453;BME280;50813;52.654;6.766;2023-03-23T01:08:58;100039.0;;;11.26;100.0
64453;BME280;50813;52.654;6.766;2023-03-23T01:12:11;100050.0;;;11.29;100.0
64453;BME280;50813;52.654;6.766;2023-03-23T01:13:47;100063.0;;;11.29;100.0
64453;BME280;50813;52.654;6.766;2023-03-23T01:15:23;100055.0;;;11.27;100.0
64453;BME280;50813;52.654;6.766;2023-03-23T01:18:36;100057.0;;;11.29;100.0
64453;BME280;50813;52.654;6.766;2023-03-23T01:20:14;100050.0;;;11.3;100.0
64453;BME280;50813;52.654;6.766;2023-03-23T01:21:51;100037.0;;;11.36;100.0
64453;BME280;50813;52.654;6.766;2023-03-23T01:25:03;100019.0;;;11.32;100.0
64453;BME280;50813;52.654;6.766;2023-03-23T01:26:40;100028.0;;;11.35;100.0
64453;BME280;50813;52.654;6.766;2023-03-23T01:28:16;100030.0;;;11.35;100.0
64453;BME280;50813;52.654;6.766;2023-03-23T01:31:28;100024.0;;;11.37;100.0
64453;BME280;50813;52.654;6.766;2023-03-23T01:33:04;100017.0;;;11.35;100.0
64453;BME280;50813;52.654;6.766;2023-03-23T01:34:41;100018.0;;;11.32;100.0
64453;BME280;50813;52.654;6.766;2023-03-23T01:36:19;100015.0;;;11.39;100.0
64453;BME280;50813;52.654;6.766;2023-03-23T01:39:35;100013.0;;;11.34;100.0
64453;BME280;50813;52.654;6.766;2023-03-23T01:41:12;100010.0;;;11.36;100.0
64453;BME280;50813;52.654;6.766;2023-03-23T01:42:50;100000.0;;;11.4;100.0
64453;BME280;50813;52.654;6.766;2023-03-23T01:47:02;100007.0;;;11.5;100.0
64453;BME280;50813;52.654;6.766;2023-03-23T01:50:16;100013.0;;;11.48;100.0
64453;BME280;50813;52.654;6.766;2023-03-23T01:51:55;100016.0;;;11.46;100.0
64453;BME280;50813;52.654;6.766;2023-03-23T01:53:38;100013.0;;;11.44;100.0
64453;BME280;50813;52.654;6.766;2023-03-23T01:55:17;100027.0;;;11.49;100.0
64453;BME280;50813;52.654;6.766;2023-03-23T01:58:35;100023.0;;;11.51;100.0
64453;BME280;50813;52.654;6.766;2023-03-23T02:00:14;100019.0;;;11.51;100.0
64453;BME280;50813;52.654;6.766;2023-03-23T02:01:51;100011.0;;;11.52;100.0
64453;BME280;50813;52.654;6.766;2023-03-23T02:03:29;100003.0;;;11.53;100.0
64453;BME280;50813;52.654;6.766;2023-03-23T02:06:50;99995.0;;;11.49;100.0
64453;BME280;50813;52.654;6.766;2023-03-23T02:08:27;100011.0;;;11.45;100.0
64453;BME280;50813;52.654;6.766;2023-03-23T02:10:05;100019.0;;;11.47;100.0
64453;BME280;50813;52.654;6.766;2023-03-23T02:13:18;100006.0;;;11.44;100.0
64453;BME280;50813;52.654;6.766;2023-03-23T02:14:55;100012.0;;;11.51;100.0
64453;BME280;50813;52.654;6.766;2023-03-23T02:16:36;100009.0;;;11.48;100.0
64453;BME280;50813;52.654;6.766;2023-03-23T02:18:27;100013.0;;;11.49;100.0
64453;BME280;50813;52.654;6.766;2023-03-23T02:20:23;100007.0;;;11.47;100.0
64453;BME280;50813;52.654;6.766;2023-03-23T02:25:48;100007.0;;;11.46;100.0
64453;BME280;50813;52.654;6.766;2023-03-23T02:27:48;100005.0;;;11.48;100.0
64453;BME280;50813;52.654;6.766;2023-03-23T02:30:13;99999.0;;;11.49;100.0
64453;BME280;50813;52.654;6.766;2023-03-23T02:32:10;99999.0;;;11.46;100.0
64453;BME280;50813;52.654;6.766;2023-03-23T02:33:53;99997.0;;;11.4;100.0
64453;BME280;50813;52.654;6.766;2023-03-23T02:35:34;100000.0;;;11.37;100.0
64453;BME280;50813;52.654;6.766;2023-03-23T02:37:16;99995.0;;;11.44;100.0
64453;BME280;50813;52.654;6.766;2023-03-23T02:39:01;99990.0;;;11.42;100.0
64453;BME280;50813;52.654;6.766;2023-03-23T02:42:24;99991.0;;;11.38;100.0
64453;BME280;50813;52.654;6.766;2023-03-23T02:44:03;99990.0;;;11.39;100.0
64453;BME280;50813;52.654;6.766;2023-03-23T02:45:43;99981.0;;;11.42;100.0
64453;BME280;50813;52.654;6.766;2023-03-23T02:47:22;99978.0;;;11.39;100.0
64453;BME280;50813;52.654;6.766;2023-03-23T02:50:43;99978.0;;;11.37;100.0
64453;BME280;50813;52.654;6.766;2023-03-23T02:52:25;99974.0;;;11.4;100.0
64453;BME280;50813;52.654;6.766;2023-03-23T02:54:04;99965.0;;;11.42;100.0
64453;BME280;50813;52.654;6.766;2023-03-23T02:55:43;99966.0;;;11.44;100.0
64453;BME280;50813;52.654;6.766;2023-03-23T02:58:58;99969.0;;;11.43;100.0
64453;BME280;50813;52.654;6.766;2023-03-23T03:00:35;99963.0;;;11.46;100.0
64453;BME280;50813;52.654;6.766;2023-03-23T03:02:14;99964.0;;;11.43;100.0
64453;BME280;50813;52.654;6.766;2023-03-23T03:05:37;99970.0;;;11.44;100.0
64453;BME280;50813;52.654;6.766;2023-03-23T03:07:30;99965.0;;;11.52;100.0
64453;BME280;50813;52.654;6.766;2023-03-23T03:09:30;99976.0;;;11.53;100.0
64453;BME280;50813;52.654;6.766;2023-03-23T03:11:12;99965.0;;;11.56;100.0
64453;BME280;50813;52.654;6.766;2023-03-23T03:12:55;99961.0;;;11.59;100.0
64453;BME280;50813;52.654;6.766;2023-03-23T03:14:37;99964.0;;;11.62;100.0
64453;BME280;50813;52.654;6.766;2023-03-23T03:18:08;99963.0;;;11.65;100.0
64453;BME280;50813;52.654;6.766;2023-03-23T03:19:49;99958.0;;;11.63;100.0
64453;BME280;50813;52.654;6.766;2023-03-23T03:21:31;99947.0;;;11.67;100.0
64453;BME280;50813;52.654;6.766;2023-03-23T03:23:10;99952.0;;;11.74;100.0
64453;BME280;50813;52.654;6.766;2023-03-23T03:26:28;99958.0;;;11.77;100.0
64453;BME280;50813;52.654;6.766;2023-03-23T03:28:06;99952.0;;;11.72;100.0
64453;BME280;50813;52.654;6.766;2023-03-23T03:29:44;99960.0;;;11.72;100.0
64453;BME280;50813;52.654;6.766;2023-03-23T03:31:24;99955.0;;;11.71;100.0
64453;BME280;50813;52.654;6.766;2023-03-23T03:34:41;99949.0;;;11.71;100.0
64453;BME280;50813;52.654;6.766;2023-03-23T03:36:20;99957.0;;;11.73;100.0
64453;BME280;50813;52.654;6.766;2023-03-23T03:37:57;99959.0;;;11.74;100.0
64453;BME280;50813;52.654;6.766;2023-03-23T03:39:41;99959.0;;;11.73;100.0
64453;BME280;50813;52.654;6.766;2023-03-23T03:42:55;99958.0;;;11.8;100.0
64453;BME280;50813;52.654;6.766;2023-03-23T03:44:32;99959.0;;;11.87;100.0
64453;BME280;50813;52.654;6.766;2023-03-23T03:46:08;99958.0;;;11.83;100.0
64453;BME280;50813;52.654;6.766;2023-03-23T03:49:21;99953.0;;;11.83;100.0
64453;BME280;50813;52.654;6.766;2023-03-23T03:50:57;99956.0;;;11.87;100.0
64453;BME280;50813;52.654;6.766;2023-03-23T03:52:33;99959.0;;;11.81;100.0
64453;BME280;50813;52.654;6.766;2023-03-23T03:55:46;99957.0;;;11.82;100.0
64453;BME280;50813;52.654;6.766;2023-03-23T03:57:23;99945.0;;;11.78;100.0
64453;BME280;50813;52.654;6.766;2023-03-23T03:58:59;99957.0;;;11.77;100.0
64453;BME280;50813;52.654;6.766;2023-03-23T04:00:35;99955.0;;;11.72;100.0
64453;BME280;50813;52.654;6.766;2023-03-23T04:03:47;99948.0;;;11.78;100.0
64453;BME280;50813;52.654;6.766;2023-03-23T04:05:23;99940.0;;;11.71;100.0
64453;BME280;50813;52.654;6.766;2023-03-23T04:06:59;99937.0;;;11.7;100.0
64453;BME280;50813;52.654;6.766;2023-03-23T04:10:13;99922.0;;;11.66;100.0
64453;BME280;50813;52.654;6.766;2023-03-23T04:11:49;99925.0;;;11.65;100.0
64453;BME280;50813;52.654;6.766;2023-03-23T04:13:25;99921.0;;;11.68;100.0
64453;BME280;50813;52.654;6.766;2023-03-23T04:16:38;99915.0;;;11.67;100.0
64453;BME280;50813;52.654;6.766;2023-03-23T04:18:15;99918.0;;;11.69;100.0
64453;BME280;50813;52.654;6.766;2023-03-23T04:19:53;99920.0;;;11.71;100.0
64453;BME280;50813;52.654;6.766;2023-03-23T04:21:29;99927.0;;;11.72;100.0
64453;BME280;50813;52.654;6.766;2023-03-23T04:24:42;99924.0;;;11.78;100.0
64453;BME280;50813;52.654;6.766;2023-03-23T04:26:18;99936.0;;;11.77;100.0
64453;BME280;50813;52.654;6.766;2023-03-23T04:27:54;99930.0;;;11.81;100.0
64453;BME280;50813;52.654;6.766;2023-03-23T04:31:06;99930.0;;;11.86;100.0
64453;BME280;50813;52.654;6.766;2023-03-23T04:32:42;99933.0;;;11.82;100.0
64453;BME280;50813;52.654;6.766;2023-03-23T04:34:18;99921.0;;;11.86;100.0
64453;BME280;50813;52.654;6.766;2023-03-23T04:37:36;99922.0;;;11.9;100.0
64453;BME280;50813;52.654;6.766;2023-03-23T04:39:14;99917.0;;;11.88;100.0
64453;BME280;50813;52.654;6.766;2023-03-23T04:40:52;99935.0;;;11.95;100.0
64453;BME280;50813;52.654;6.766;2023-03-23T04:42:29;99918.0;;;11.94;100.0
64453;BME280;50813;52.654;6.766;2023-03-23T04:45:43;99930.0;;;11.98;100.0
64453;BME280;50813;52.654;6.766;2023-03-23T04:47:20;99926.0;;;11.95;100.0
64453;BME280;50813;52.654;6.766;2023-03-23T04:48:56;99926.0;;;11.95;100.0
64453;BME280;50813;52.654;6.766;2023-03-23T04:52:09;99914.0;;;11.94;100.0
64453;BME280;50813;52.654;6.766;2023-03-23T04:53:45;99908.0;;;11.95;100.0
64453;BME280;50813;52.654;6.766;2023-03-23T04:55:21;99910.0;;;11.93;100.0
64453;BME280;50813;52.654;6.766;2023-03-23T04:58:33;99922.0;;;11.89;100.0
64453;BME280;50813;52.654;6.766;2023-03-23T05:00:11;99922.0;;;11.86;100.0
64453;BME280;50813;52.654;6.766;2023-03-23T05:01:47;99918.0;;;11.89;100.0
64453;BME280;50813;52.654;6.766;2023-03-23T05:03:23;99920.0;;;11.86;100.0
64453;BME280;50813;52.654;6.766;2023-03-23T05:06:35;99924.0;;;11.87;100.0
64453;BME280;50813;52.654;6.766;2023-03-23T05:08:11;99918.0;;;11.87;100.0
64453;BME280;50813;52.654;6.766;2023-03-23T05:09:48;99926.0;;;11.86;100.0
64453;BME280;50813;52.654;6.766;2023-03-23T05:13:00;99913.0;;;11.91;100.0
64453;BME280;50813;52.654;6.766;2023-03-23T05:14:40;99915.0;;;11.89;100.0
64453;BME280;50813;52.654;6.766;2023-03-23T05:16:16;99917.0;;;11.88;100.0
64453;BME280;50813;52.654;6.766;2023-03-23T05:19:28;99921.0;;;11.89;100.0
64453;BME280;50813;52.654;6.766;2023-03-23T05:21:04;99921.0;;;11.87;100.0
64453;BME280;50813;52.654;6.766;2023-03-23T05:22:41;99920.0;;;11.7;100.0
64453;BME280;50813;52.654;6.766;2023-03-23T05:24:17;99931.0;;;11.61;100.0
64453;BME280;50813;52.654;6.766;2023-03-23T05:27:31;99947.0;;;11.46;100.0
64453;BME280;50813;52.654;6.766;2023-03-23T05:29:07;99964.0;;;11.2;100.0
64453;BME280;50813;52.654;6.766;2023-03-23T05:30:43;99945.0;;;11.02;100.0
64453;BME280;50813;52.654;6.766;2023-03-23T05:33:55;99974.0;;;10.73;100.0
64453;BME280;50813;52.654;6.766;2023-03-23T05:35:32;99967.0;;;10.39;100.0
64453;BME280;50813;52.654;6.766;2023-03-23T05:37:08;100001.0;;;10.17;100.0
64453;BME280;50813;52.654;6.766;2023-03-23T05:40:21;99997.0;;;10.21;100.0
64453;BME280;50813;52.654;6.766;2023-03-23T05:41:57;99995.0;;;10.19;100.0
64453;BME280;50813;52.654;6.766;2023-03-23T05:43:33;99996.0;;;10.11;100.0
64453;BME280;50813;52.654;6.766;2023-03-23T05:45:10;99982.0;;;10.06;100.0
64453;BME280;50813;52.654;6.766;2023-03-23T05:48:24;99990.0;;;10.08;100.0
64453;BME280;50813;52.654;6.766;2023-03-23T05:50:01;99986.0;;;10.01;100.0
64453;BME280;50813;52.654;6.766;2023-03-23T05:51:37;99993.0;;;10.0;100.0
64453;BME280;50813;52.654;6.766;2023-03-23T05:54:49;99997.0;;;10.0;100.0
64453;BME280;50813;52.654;6.766;2023-03-23T05:56:25;99991.0;;;10.08;100.0
64453;BME280;50813;52.654;6.766;2023-03-23T05:58:02;99998.0;;;10.15;100.0
64453;BME280;50813;52.654;6.766;2023-03-23T06:01:14;100006.0;;;10.09;100.0
64453;BME280;50813;52.654;6.766;2023-03-23T06:02:50;99999.0;;;10.06;100.0
64453;BME280;50813;52.654;6.766;2023-03-23T06:04:30;99983.0;;;10.08;100.0
64453;BME280;50813;52.654;6.766;2023-03-23T06:06:09;99994.0;;;10.14;100.0
64453;BME280;50813;52.654;6.766;2023-03-23T06:09:22;100006.0;;;10.22;100.0
64453;BME280;50813;52.654;6.766;2023-03-23T06:10:58;100005.0;;;10.21;100.0
64453;BME280;50813;52.654;6.766;2023-03-23T06:12:35;100003.0;;;10.23;100.0
64453;BME280;50813;52.654;6.766;2023-03-23T06:15:48;100007.0;;;10.24;100.0
64453;BME280;50813;52.654;6.766;2023-03-23T06:17:24;100005.0;;;10.27;100.0
64453;BME280;50813;52.654;6.766;2023-03-23T06:19:00;100014.0;;;10.3;100.0
64453;BME280;50813;52.654;6.766;2023-03-23T06:22:12;100009.0;;;10.29;100.0
64453;BME280;50813;52.654;6.766;2023-03-23T06:23:49;100013.0;;;10.25;100.0
64453;BME280;50813;52.654;6.766;2023-03-23T06:25:25;100015.0;;;10.31;100.0
64453;BME280;50813;52.654;6.766;2023-03-23T06:27:02;100006.0;;;10.35;100.0
64453;BME280;50813;52.654;6.766;2023-03-23T06:30:15;100023.0;;;10.34;100.0
64453;BME280;50813;52.654;6.766;2023-03-23T06:31:54;100022.0;;;10.44;100.0
64453;BME280;50813;52.654;6.766;2023-03-23T06:33:32;100026.0;;;10.51;100.0
64453;BME280;50813;52.654;6.766;2023-03-23T06:36:46;100030.0;;;10.56;100.0
64453;BME280;50813;52.654;6.766;2023-03-23T06:38:23;100027.0;;;10.66;100.0
64453;BME280;50813;52.654;6.766;2023-03-23T06:39:59;100030.0;;;10.68;100.0
64453;BME280;50813;52.654;6.766;2023-03-23T06:41:36;100040.0;;;10.75;100.0
64453;BME280;50813;52.654;6.766;2023-03-23T06:44:49;100039.0;;;10.73;100.0
64453;BME280;50813;52.654;6.766;2023-03-23T06:46:25;100042.0;;;10.73;100.0
64453;BME280;50813;52.654;6.766;2023-03-23T06:48:01;100045.0;;;10.77;100.0
64453;BME280;50813;52.654;6.766;2023-03-23T06:51:13;100055.0;;;10.81;100.0
64453;BME280;50813;52.654;6.766;2023-03-23T06:52:50;100053.0;;;10.83;100.0
64453;BME280;50813;52.654;6.766;2023-03-23T06:54:27;100046.0;;;10.82;100.0
64453;BME280;50813;52.654;6.766;2023-03-23T06:57:39;100055.0;;;10.91;100.0
64453;BME280;50813;52.654;6.766;2023-03-23T06:59:15;100055.0;;;10.96;100.0
64453;BME280;50813;52.654;6.766;2023-03-23T07:00:53;100052.0;;;11.0;100.0
64453;BME280;50813;52.654;6.766;2023-03-23T07:04:05;100050.0;;;11.04;100.0
64453;BME280;50813;52.654;6.766;2023-03-23T07:05:45;100055.0;;;11.06;100.0
64453;BME280;50813;52.654;6.766;2023-03-23T07:07:22;100052.0;;;11.07;100.0
64453;BME280;50813;52.654;6.766;2023-03-23T07:08:58;100051.0;;;11.09;100.0
64453;BME280;50813;52.654;6.766;2023-03-23T07:12:10;100056.0;;;11.2;100.0
64453;BME280;50813;52.654;6.766;2023-03-23T07:13:46;100049.0;;;11.19;100.0
64453;BME280;50813;52.654;6.766;2023-03-23T07:15:23;100052.0;;;11.15;100.0
64453;BME280;50813;52.654;6.766;2023-03-23T07:18:35;100060.0;;;11.16;100.0
64453;BME280;50813;52.654;6.766;2023-03-23T07:20:11;100065.0;;;11.31;100.0
64453;BME280;50813;52.654;6.766;2023-03-23T07:21:48;100066.0;;;11.25;100.0
64453;BME280;50813;52.654;6.766;2023-03-23T07:25:00;100076.0;;;11.27;100.0
64453;BME280;50813;52.654;6.766;2023-03-23T07:26:36;100074.0;;;11.29;100.0
64453;BME280;50813;52.654;6.766;2023-03-23T07:28:12;100077.0;;;11.33;100.0
64453;BME280;50813;52.654;6.766;2023-03-23T07:29:49;100077.0;;;11.28;100.0
64453;BME280;50813;52.654;6.766;2023-03-23T07:33:04;100080.0;;;11.34;100.0
64453;BME280;50813;52.654;6.766;2023-03-23T07:34:41;100084.0;;;11.3;100.0
64453;BME280;50813;52.654;6.766;2023-03-23T07:36:17;100089.0;;;11.28;100.0
64453;BME280;50813;52.654;6.766;2023-03-23T07:39:30;100089.0;;;11.35;100.0
64453;BME280;50813;52.654;6.766;2023-03-23T07:41:07;100094.0;;;11.4;100.0
64453;BME280;50813;52.654;6.766;2023-03-23T07:42:44;100094.0;;;11.37;100.0
64453;BME280;50813;52.654;6.766;2023-03-23T07:44:22;100090.0;;;11.41;100.0
64453;BME280;50813;52.654;6.766;2023-03-23T07:47:34;100091.0;;;11.42;100.0
64453;BME280;50813;52.654;6.766;2023-03-23T07:49:11;100099.0;;;11.37;100.0
64453;BME280;50813;52.654;6.766;2023-03-23T07:50:47;100105.0;;;11.42;100.0
64453;BME280;50813;52.654;6.766;2023-03-23T07:53:59;100105.0;;;11.43;100.0
64453;BME280;50813;52.654;6.766;2023-03-23T07:55:35;100098.0;;;11.56;100.0
64453;BME280;50813;52.654;6.766;2023-03-23T07:57:11;100102.0;;;11.51;100.0
64453;BME280;50813;52.654;6.766;2023-03-23T08:00:25;100105.0;;;11.51;100.0
64453;BME280;50813;52.654;6.766;2023-03-23T08:02:02;100112.0;;;11.56;100.0
64453;BME280;50813;52.654;6.766;2023-03-23T08:03:38;100114.0;;;11.52;100.0
64453;BME280;50813;52.654;6.766;2023-03-23T08:06:51;100114.0;;;11.63;100.0
64453;BME280;50813;52.654;6.766;2023-03-23T08:08:27;100125.0;;;11.68;100.0
64453;BME280;50813;52.654;6.766;2023-03-23T08:10:04;100124.0;;;11.64;100.0
64453;BME280;50813;52.654;6.766;2023-03-23T08:11:40;100123.0;;;11.67;100.0
64453;BME280;50813;52.654;6.766;2023-03-23T08:14:54;100118.0;;;11.74;100.0
64453;BME280;50813;52.654;6.766;2023-03-23T08:16:30;100122.0;;;11.82;100.0
64453;BME280;50813;52.654;6.766;2023-03-23T08:18:06;100118.0;;;11.81;100.0
64453;BME280;50813;52.654;6.766;2023-03-23T08:21:19;100119.0;;;11.84;100.0
64453;BME280;50813;52.654;6.766;2023-03-23T08:22:56;100124.0;;;11.76;100.0
64453;BME280;50813;52.654;6.766;2023-03-23T08:24:32;100130.0;;;11.82;100.0
64453;BME280;50813;52.654;6.766;2023-03-23T08:27:46;100138.0;;;11.9;100.0
64453;BME280;50813;52.654;6.766;2023-03-23T08:29:23;100135.0;;;11.75;100.0
64453;BME280;50813;52.654;6.766;2023-03-23T08:30:59;100128.0;;;11.85;100.0
64453;BME280;50813;52.654;6.766;2023-03-23T08:32:36;100136.0;;;11.85;100.0
64453;BME280;50813;52.654;6.766;2023-03-23T08:35:54;100142.0;;;11.83;100.0
64453;BME280;50813;52.654;6.766;2023-03-23T08:37:32;100139.0;;;11.89;100.0
64453;BME280;50813;52.654;6.766;2023-03-23T08:39:08;100138.0;;;11.86;100.0
64453;BME280;50813;52.654;6.766;2023-03-23T08:42:20;100135.0;;;11.96;100.0
64453;BME280;50813;52.654;6.766;2023-03-23T08:43:56;100130.0;;;11.98;100.0
64453;BME280;50813;52.654;6.766;2023-03-23T08:45:32;100141.0;;;12.08;100.0
64453;BME280;50813;52.654;6.766;2023-03-23T08:47:08;100138.0;;;12.0;100.0
64453;BME280;50813;52.654;6.766;2023-03-23T08:50:23;100147.0;;;12.03;100.0
64453;BME280;50813;52.654;6.766;2023-03-23T08:52:01;100155.0;;;12.13;100.0
64453;BME280;50813;52.654;6.766;2023-03-23T08:53:38;100155.0;;;12.06;100.0
64453;BME280;50813;52.654;6.766;2023-03-23T08:56:52;100161.0;;;12.12;100.0
64453;BME280;50813;52.654;6.766;2023-03-23T08:58:29;100166.0;;;12.23;100.0
64453;BME280;50813;52.654;6.766;2023-03-23T09:00:07;100153.0;;;12.14;100.0
64453;BME280;50813;52.654;6.766;2023-03-23T09:03:21;100150.0;;;12.25;100.0
64453;BME280;50813;52.654;6.766;2023-03-23T09:04:57;100145.0;;;12.24;100.0
64453;BME280;50813;52.654;6.766;2023-03-23T09:06:34;100146.0;;;12.27;100.0
64453;BME280;50813;52.654;6.766;2023-03-23T09:08:11;100157.0;;;12.29;100.0
64453;BME280;50813;52.654;6.766;2023-03-23T09:11:23;100163.0;;;12.35;100.0
64453;BME280;50813;52.654;6.766;2023-03-23T09:12:59;100170.0;;;12.27;100.0
64453;BME280;50813;52.654;6.766;2023-03-23T09:14:36;100170.0;;;12.06;100.0
64453;BME280;50813;52.654;6.766;2023-03-23T09:17:51;100173.0;;;12.07;100.0
64453;BME280;50813;52.654;6.766;2023-03-23T09:19:28;100173.0;;;12.07;100.0
64453;BME280;50813;52.654;6.766;2023-03-23T09:21:05;100171.0;;;11.94;100.0
64453;BME280;50813;52.654;6.766;2023-03-23T09:22:43;100160.0;;;12.0;100.0
64453;BME280;50813;52.654;6.766;2023-03-23T09:25:59;100151.0;;;11.94;100.0
64453;BME280;50813;52.654;6.766;2023-03-23T09:27:37;100159.0;;;11.95;100.0
64453;BME280;50813;52.654;6.766;2023-03-23T09:29:14;100174.0;;;11.9;100.0
64453;BME280;50813;52.654;6.766;2023-03-23T09:32:26;100173.0;;;11.9;100.0
64453;BME280;50813;52.654;6.766;2023-03-23T09:34:02;100174.0;;;11.82;100.0
64453;BME280;50813;52.654;6.766;2023-03-23T09:35:39;100170.0;;;11.81;100.0
64453;BME280;50813;52.654;6.766;2023-03-23T09:38:52;100165.0;;;11.82;100.0
64453;BME280;50813;52.654;6.766;2023-03-23T09:40:42;100175.0;;;11.94;100.0
64453;BME280;50813;52.654;6.766;2023-03-23T09:42:30;100177.0;;;12.16;100.0
64453;BME280;50813;52.654;6.766;2023-03-23T09:44:21;100180.0;;;12.29;100.0
64453;BME280;50813;52.654;6.766;2023-03-23T09:46:08;100177.0;;;12.62;100.0
64453;BME280;50813;52.654;6.766;2023-03-23T09:48:26;100178.0;;;12.69;100.0
64453;BME280;50813;52.654;6.766;2023-03-23T09:50:10;100187.0;;;12.74;100.0
64453;BME280;50813;52.654;6.766;2023-03-23T09:53:34;100187.0;;;12.67;100.0
64453;BME280;50813;52.654;6.766;2023-03-23T09:55:15;100196.0;;;12.48;100.0
64453;BME280;50813;52.654;6.766;2023-03-23T09:56:54;100183.0;;;12.34;100.0
64453;BME280;50813;52.654;6.766;2023-03-23T09:58:35;100189.0;;;12.49;100.0
64453;BME280;50813;52.654;6.766;2023-03-23T10:02:14;100192.0;;;12.58;100.0
64453;BME280;50813;52.654;6.766;2023-03-23T10:04:01;100187.0;;;12.67;100.0
64453;BME280;50813;52.654;6.766;2023-03-23T10:05:53;100193.0;;;12.72;100.0
64453;BME280;50813;52.654;6.766;2023-03-23T10:07:30;100185.0;;;12.92;100.0
64453;BME280;50813;52.654;6.766;2023-03-23T10:09:09;100182.0;;;13.01;100.0
64453;BME280;50813;52.654;6.766;2023-03-23T10:10:58;100192.0;;;12.95;100.0
64453;BME280;50813;52.654;6.766;2023-03-23T10:14:32;100201.0;;;13.03;100.0
64453;BME280;50813;52.654;6.766;2023-03-23T10:16:20;100207.0;;;13.13;100.0
64453;BME280;50813;52.654;6.766;2023-03-23T10:18:10;100198.0;;;13.27;100.0
64453;BME280;50813;52.654;6.766;2023-03-23T10:19:53;100203.0;;;13.3;99.29
64453;BME280;50813;52.654;6.766;2023-03-23T10:21:52;100202.0;;;13.14;99.04
64453;BME280;50813;52.654;6.766;2023-03-23T10:23:46;100202.0;;;13.24;98.21
64453;BME280;50813;52.654;6.766;2023-03-23T10:25:29;100211.0;;;13.2;96.95
64453;BME280;50813;52.654;6.766;2023-03-23T10:28:58;100201.0;;;13.2;95.58
64453;BME280;50813;52.654;6.766;2023-03-23T10:30:39;100209.0;;;13.19;96.41
64453;BME280;50813;52.654;6.766;2023-03-23T10:32:19;100207.0;;;13.31;94.83
64453;BME280;50813;52.654;6.766;2023-03-23T10:34:02;100205.0;;;13.44;92.84
64453;BME280;50813;52.654;6.766;2023-03-23T10:37:37;100209.0;;;13.59;94.68
64453;BME280;50813;52.654;6.766;2023-03-23T10:39:18;100205.0;;;13.72;92.73
64453;BME280;50813;52.654;6.766;2023-03-23T10:40:59;100205.0;;;13.72;90.74
64453;BME280;50813;52.654;6.766;2023-03-23T10:42:41;100205.0;;;13.79;89.42
64453;BME280;50813;52.654;6.766;2023-03-23T10:44:19;100213.0;;;13.81;88.89
64453;BME280;50813;52.654;6.766;2023-03-23T10:47:53;100208.0;;;13.92;88.01
64453;BME280;50813;52.654;6.766;2023-03-23T10:49:36;100220.0;;;13.86;87.52
64453;BME280;50813;52.654;6.766;2023-03-23T10:51:17;100211.0;;;13.91;88.52
64453;BME280;50813;52.654;6.766;2023-03-23T10:52:57;100221.0;;;14.14;86.8
64453;BME280;50813;52.654;6.766;2023-03-23T10:56:24;100213.0;;;14.04;87.0
64453;BME280;50813;52.654;6.766;2023-03-23T10:58:03;100221.0;;;14.15;85.58
64453;BME280;50813;52.654;6.766;2023-03-23T10:59:41;100220.0;;;14.17;84.29
64453;BME280;50813;52.654;6.766;2023-03-23T11:01:19;100215.0;;;13.92;82.77
64453;BME280;50813;52.654;6.766;2023-03-23T11:04:37;100215.0;;;14.01;84.99
64453;BME280;50813;52.654;6.766;2023-03-23T11:06:19;100217.0;;;13.96;85.0
64453;BME280;50813;52.654;6.766;2023-03-23T11:07:59;100223.0;;;13.81;86.13
64453;BME280;50813;52.654;6.766;2023-03-23T11:09:37;100217.0;;;13.86;86.27
64453;BME280;50813;52.654;6.766;2023-03-23T11:12:56;100215.0;;;13.8;87.6